createdAt,value
2023-04-23T00:00:37.351Z,101095.66
2023-04-23T00:03:43.200Z,101105.94
2023-04-23T00:06:48.185Z,101111.63
2023-04-23T00:09:56.290Z,101096.03
2023-04-23T00:12:59.354Z,101099.94
2023-04-23T00:16:01.713Z,101103.13
2023-04-23T00:19:03.905Z,101111.63
2023-04-23T00:22:06.414Z,101101.97
2023-04-23T00:25:09.648Z,101105.44
2023-04-23T00:28:11.690Z,101102.91
2023-04-23T00:31:13.828Z,101101.97
2023-04-23T00:34:16.148Z,101108.97
2023-04-23T00:37:18.404Z,101102.03
2023-04-23T00:40:21.020Z,101115.94
2023-04-23T00:43:24.292Z,101101.53
2023-04-23T00:46:27.037Z,101115.72
2023-04-23T00:49:30.042Z,101121.69
2023-04-23T00:52:32.327Z,101116.53
2023-04-23T00:55:34.727Z,101120.19
2023-04-23T00:58:38.025Z,101111.72
2023-04-23T01:01:41.328Z,101107.97
2023-04-23T01:04:51.278Z,101115.72
2023-04-23T01:07:54.395Z,101119.00
2023-04-23T01:10:56.465Z,101116.19
2023-04-23T01:13:59.508Z,101111.44
2023-04-23T01:17:03.264Z,101116.94
2023-04-23T01:20:06.819Z,101118.34
2023-04-23T01:23:08.886Z,101113.22
2023-04-23T01:26:11.955Z,101119.09
2023-04-23T01:29:14.455Z,101109.63
2023-04-23T01:32:17.620Z,101115.53
2023-04-23T01:35:19.799Z,101112.53
2023-04-23T01:38:22.854Z,101114.22
2023-04-23T01:41:25.772Z,101110.56
2023-04-23T01:44:27.954Z,101119.16
2023-04-23T01:47:30.191Z,101122.56
2023-04-23T01:50:32.370Z,101113.16
2023-04-23T01:53:34.419Z,101112.38
2023-04-23T01:56:36.608Z,101115.44
2023-04-23T01:59:40.505Z,101113.88
2023-04-23T02:02:44.554Z,101110.16
2023-04-23T02:05:46.883Z,101111.53
2023-04-23T02:08:49.953Z,101113.03
2023-04-23T02:11:51.978Z,101110.03
2023-04-23T02:14:54.646Z,101102.63
2023-04-23T02:17:56.956Z,101098.81
2023-04-23T02:21:00.031Z,101103.19
2023-04-23T02:24:02.486Z,101111.50
2023-04-23T02:27:05.874Z,101109.78
2023-04-23T02:30:09.706Z,101116.81
2023-04-23T02:33:12.664Z,101111.06
2023-04-23T02:36:14.862Z,101116.69
2023-04-23T02:39:17.134Z,101112.16
2023-04-23T02:42:19.212Z,101113.44
2023-04-23T02:45:21.490Z,101118.97
2023-04-23T02:48:27.497Z,101113.25
2023-04-23T02:51:29.861Z,101110.78
2023-04-23T02:54:32.658Z,101109.88
2023-04-23T02:57:34.904Z,101121.53
2023-04-23T03:00:37.087Z,101128.94
2023-04-23T03:03:39.974Z,101125.41
2023-04-23T03:06:42.799Z,101122.63
2023-04-23T03:09:44.873Z,101128.22
2023-04-23T03:12:47.144Z,101120.94
2023-04-23T03:15:51.350Z,101110.94
2023-04-23T03:18:53.452Z,101119.25
2023-04-23T03:21:55.925Z,101126.28
2023-04-23T03:24:58.308Z,101119.94
2023-04-23T03:28:01.084Z,101124.94
2023-04-23T03:31:04.041Z,101123.63
2023-04-23T03:34:06.271Z,101119.66
2023-04-23T03:37:10.981Z,101125.44
2023-04-23T03:40:14.413Z,101131.44
2023-04-23T03:43:18.566Z,101137.22
2023-04-23T03:46:40.148Z,101136.50
2023-04-23T03:49:45.432Z,101138.91
2023-04-23T03:52:48.815Z,101138.09
2023-04-23T03:56:05.924Z,101139.25
2023-04-23T03:59:14.210Z,101139.63
2023-04-23T04:02:16.692Z,101154.69
2023-04-23T04:05:19.019Z,101147.19
2023-04-23T04:08:26.281Z,101150.06
2023-04-23T04:11:28.450Z,101152.19
2023-04-23T04:14:35.547Z,101142.72
2023-04-23T04:17:38.267Z,101151.28
2023-04-23T04:20:45.853Z,101153.56
2023-04-23T04:23:48.297Z,101161.44
2023-04-23T04:26:52.754Z,101160.66
2023-04-23T04:29:54.954Z,101176.03
2023-04-23T04:32:57.512Z,101173.22
2023-04-23T04:36:00.705Z,101168.66
2023-04-23T04:39:03.700Z,101173.03
2023-04-23T04:42:07.453Z,101177.72
2023-04-23T04:45:10.746Z,101182.19
2023-04-23T04:48:14.880Z,101183.59
2023-04-23T04:51:17.460Z,101190.41
2023-04-23T04:54:19.631Z,101193.50
2023-04-23T04:57:23.346Z,101183.72
2023-04-23T05:00:30.366Z,101192.22
2023-04-23T05:03:33.049Z,101183.94
2023-04-23T05:06:35.443Z,101184.56
2023-04-23T05:09:37.620Z,101195.47
2023-04-23T05:12:41.621Z,101197.78
2023-04-23T05:15:43.747Z,101195.75
2023-04-23T05:18:46.843Z,101204.16
2023-04-23T05:21:49.021Z,101200.72
2023-04-23T05:24:51.082Z,101205.88
2023-04-23T05:27:53.791Z,101200.50
2023-04-23T05:30:57.675Z,101198.22
2023-04-23T05:33:59.741Z,101202.81
2023-04-23T05:37:02.544Z,101208.50
2023-04-23T05:40:07.026Z,101203.81
2023-04-23T05:43:09.514Z,101201.19
2023-04-23T05:46:11.796Z,101207.00
2023-04-23T05:49:13.909Z,101215.59
2023-04-23T05:52:16.478Z,101211.97
2023-04-23T05:55:20.510Z,101211.59
2023-04-23T05:58:23.762Z,101210.59
2023-04-23T06:01:26.128Z,101209.00
2023-04-23T06:04:28.637Z,101201.81
2023-04-23T06:07:32.771Z,101210.50
2023-04-23T06:10:34.917Z,101213.44
2023-04-23T06:13:44.059Z,101213.53
2023-04-23T06:16:46.667Z,101220.34
2023-04-23T06:19:48.710Z,101217.91
2023-04-23T06:22:50.902Z,101211.25
2023-04-23T06:25:53.062Z,101218.56
2023-04-23T06:28:55.190Z,101218.44
2023-04-23T06:32:13.852Z,101208.13
2023-04-23T06:35:15.981Z,101216.47
2023-04-23T06:38:18.990Z,101215.44
2023-04-23T06:41:21.356Z,101207.75
2023-04-23T06:44:34.700Z,101215.16
2023-04-23T06:47:38.378Z,101208.84
2023-04-23T06:50:40.702Z,101201.16
2023-04-23T06:53:42.870Z,101213.59
2023-04-23T06:56:44.991Z,101205.81
2023-04-23T06:59:47.750Z,101209.44
2023-04-23T07:02:51.064Z,101211.13
2023-04-23T07:05:54.403Z,101213.09
2023-04-23T07:08:56.475Z,101207.06
2023-04-23T07:11:58.584Z,101206.59
2023-04-23T07:15:00.962Z,101221.75
2023-04-23T07:18:03.937Z,101211.72
2023-04-23T07:21:06.548Z,101211.59
2023-04-23T07:24:08.630Z,101211.16
2023-04-23T07:27:10.885Z,101212.03
2023-04-23T07:30:13.536Z,101202.75
2023-04-23T07:33:15.711Z,101201.69
2023-04-23T07:36:18.051Z,101204.91
2023-04-23T07:39:20.212Z,101199.66
2023-04-23T07:42:22.274Z,101199.59
2023-04-23T07:45:24.425Z,101208.63
2023-04-23T07:48:26.663Z,101198.28
2023-04-23T07:51:28.930Z,101184.53
2023-04-23T07:54:30.973Z,101191.16
2023-04-23T07:57:33.122Z,101185.09
2023-04-23T08:00:37.577Z,101180.91
2023-04-23T08:03:39.937Z,101181.53
2023-04-23T08:06:42.701Z,101174.59
2023-04-23T08:09:46.817Z,101180.06
2023-04-23T08:12:49.202Z,101179.00
2023-04-23T08:15:52.723Z,101178.16
2023-04-23T08:19:05.011Z,101170.22
2023-04-23T08:22:11.035Z,101169.94
2023-04-23T08:25:14.482Z,101166.16
2023-04-23T08:28:16.639Z,101167.78
2023-04-23T08:31:26.517Z,101165.84
2023-04-23T08:34:29.230Z,101160.38
2023-04-23T08:37:32.927Z,101159.25
2023-04-23T08:40:38.001Z,101162.63
2023-04-23T08:44:04.790Z,101161.97
2023-04-23T08:47:11.120Z,101148.56
2023-04-23T08:50:18.367Z,101144.94
2023-04-23T08:53:25.880Z,101141.56
2023-04-23T08:56:28.214Z,101134.59
2023-04-23T08:59:34.563Z,101133.34
2023-04-23T09:02:38.488Z,101128.50
2023-04-23T09:05:42.948Z,101137.13
2023-04-23T09:08:45.857Z,101130.03
2023-04-23T09:11:47.955Z,101127.25
2023-04-23T09:14:51.138Z,101132.34
2023-04-23T09:17:53.670Z,101130.84
2023-04-23T09:20:55.895Z,101122.06
2023-04-23T09:23:58.015Z,101118.97
2023-04-23T09:27:01.339Z,101119.03
2023-04-23T09:30:12.064Z,101117.56
2023-04-23T09:33:16.646Z,101116.78
2023-04-23T09:36:22.709Z,101122.34
2023-04-23T09:39:25.045Z,101112.16
2023-04-23T09:42:28.782Z,101117.41
2023-04-23T09:45:32.905Z,101121.56
2023-04-23T09:48:43.134Z,101115.28
2023-04-23T09:51:49.490Z,101117.56
2023-04-23T09:54:51.694Z,101115.91
2023-04-23T09:57:55.112Z,101116.59
2023-04-23T10:01:07.944Z,101113.28
2023-04-23T10:04:13.553Z,101106.34
2023-04-23T10:07:20.043Z,101119.41
2023-04-23T10:10:22.642Z,101109.13
2023-04-23T10:13:25.921Z,101105.78
2023-04-23T10:16:35.513Z,101104.13
2023-04-23T10:19:45.250Z,101106.25
2023-04-23T10:22:47.942Z,101100.78
2023-04-23T10:25:53.279Z,101106.84
2023-04-23T10:28:56.813Z,101103.94
2023-04-23T10:32:04.279Z,101100.13
2023-04-23T10:35:08.081Z,101088.56
2023-04-23T10:38:10.548Z,101089.81
2023-04-23T10:41:19.652Z,101089.56
2023-04-23T10:44:45.063Z,101079.06
2023-04-23T10:47:46.386Z,101075.09
2023-04-23T10:51:09.850Z,101075.09
2023-04-23T10:54:20.115Z,101076.56
2023-04-23T10:57:22.310Z,101080.31
2023-04-23T11:00:24.769Z,101078.81
2023-04-23T11:03:31.802Z,101070.41
2023-04-23T11:07:07.777Z,101075.44
2023-04-23T11:10:14.450Z,101074.16
2023-04-23T11:13:22.818Z,101071.88
2023-04-23T11:16:30.415Z,101079.03
2023-04-23T11:19:38.420Z,101064.31
2023-04-23T11:22:46.562Z,101067.44
2023-04-23T11:25:48.766Z,101074.13
2023-04-23T11:28:54.784Z,101072.03
2023-04-23T11:32:02.577Z,101064.69
2023-04-23T11:35:07.824Z,101073.50
2023-04-23T11:38:10.638Z,101062.19
2023-04-23T11:41:12.772Z,101060.28
2023-04-23T11:44:14.921Z,101054.63
2023-04-23T11:47:21.461Z,101063.22
2023-04-23T11:50:27.555Z,101058.59
2023-04-23T11:53:29.689Z,101058.59
2023-04-23T11:56:35.785Z,101064.91
2023-04-23T11:59:38.117Z,101053.59
2023-04-23T12:02:56.597Z,101056.09
2023-04-23T12:05:59.399Z,101057.31
2023-04-23T12:09:01.472Z,101040.34
2023-04-23T12:12:06.017Z,101049.38
2023-04-23T12:15:09.074Z,101053.75
2023-04-23T12:18:12.909Z,101038.03
2023-04-23T12:21:15.565Z,101045.56
2023-04-23T12:24:18.037Z,101044.31
2023-04-23T12:27:23.996Z,101036.72
2023-04-23T12:30:30.500Z,101037.78
2023-04-23T12:33:32.556Z,101034.66
2023-04-23T12:36:36.896Z,101032.97
2023-04-23T12:39:38.948Z,101025.63
2023-04-23T12:42:42.390Z,101027.28
2023-04-23T12:45:47.682Z,101021.00
2023-04-23T12:48:49.824Z,101016.81
2023-04-23T12:51:52.872Z,101020.81
2023-04-23T12:54:56.892Z,101016.41
2023-04-23T12:58:02.784Z,101001.50
2023-04-23T13:01:04.970Z,101006.78
2023-04-23T13:04:07.099Z,101015.41
2023-04-23T13:07:11.796Z,101002.34
2023-04-23T13:10:13.916Z,100999.84
2023-04-23T13:13:16.053Z,100998.19
2023-04-23T13:16:21.290Z,100987.88
2023-04-23T13:19:23.437Z,100989.78
2023-04-23T13:22:29.072Z,101001.34
2023-04-23T13:25:31.274Z,100989.78
2023-04-23T13:28:33.337Z,100980.75
2023-04-23T13:31:38.399Z,100989.75
2023-04-23T13:34:40.714Z,100982.84
2023-04-23T13:37:48.749Z,100989.34
2023-04-23T13:40:50.935Z,100984.56
2023-04-23T13:43:52.963Z,100981.84
2023-04-23T13:46:59.216Z,100983.53
2023-04-23T13:50:09.857Z,100980.41
2023-04-23T13:53:15.177Z,100982.13
2023-04-23T13:56:18.272Z,100987.13
2023-04-23T13:59:22.555Z,100985.66
2023-04-23T14:02:24.715Z,100987.31
2023-04-23T14:05:26.863Z,100981.66
2023-04-23T14:08:30.757Z,100981.28
2023-04-23T14:11:32.936Z,100974.81
2023-04-23T14:14:35.212Z,100978.78
2023-04-23T14:17:39.372Z,100976.97
2023-04-23T14:20:42.303Z,100978.88
2023-04-23T14:23:55.501Z,100985.34
2023-04-23T14:26:58.110Z,100983.03
2023-04-23T14:30:05.604Z,100977.78
2023-04-23T14:33:07.852Z,100984.84
2023-04-23T14:36:13.234Z,100973.50
2023-04-23T14:39:17.204Z,100974.28
2023-04-23T14:42:19.599Z,100971.31
2023-04-23T14:45:21.722Z,100971.34
2023-04-23T14:48:23.788Z,100971.94
2023-04-23T14:51:27.529Z,100983.78
2023-04-23T14:54:29.645Z,100975.94
2023-04-23T14:57:31.807Z,100977.81
2023-04-23T15:00:34.094Z,100978.94
2023-04-23T15:03:37.067Z,100972.03
2023-04-23T15:06:40.855Z,100963.22
2023-04-23T15:09:43.512Z,100966.78
2023-04-23T15:12:56.042Z,100967.84
2023-04-23T15:16:03.456Z,100968.06
2023-04-23T15:19:12.432Z,100965.53
2023-04-23T15:22:14.983Z,100973.91
2023-04-23T15:25:18.948Z,100976.22
2023-04-23T15:28:21.658Z,100971.00
2023-04-23T15:31:27.743Z,100968.69
2023-04-23T15:34:36.705Z,100964.91
2023-04-23T15:37:40.488Z,100968.25
2023-04-23T15:40:42.764Z,100962.19
2023-04-23T15:43:44.857Z,100957.38
2023-04-23T15:46:47.009Z,100951.28
2023-04-23T15:49:49.852Z,100971.63
2023-04-23T15:52:52.050Z,100963.84
2023-04-23T15:55:54.505Z,100959.69
2023-04-23T15:58:57.297Z,100962.81
2023-04-23T16:02:06.970Z,100968.50
2023-04-23T16:05:09.881Z,100965.53
2023-04-23T16:08:12.639Z,100969.50
2023-04-23T16:11:15.019Z,100963.66
2023-04-23T16:14:21.915Z,100973.69
2023-04-23T16:17:24.887Z,100974.13
2023-04-23T16:20:28.668Z,100978.13
2023-04-23T16:23:31.162Z,100977.88
2023-04-23T16:26:33.901Z,100979.13
2023-04-23T16:29:36.077Z,100976.41
2023-04-23T16:32:39.424Z,100966.13
2023-04-23T16:35:41.884Z,100975.75
2023-04-23T16:38:49.608Z,100974.03
2023-04-23T16:41:51.741Z,100975.91
2023-04-23T16:44:56.778Z,100980.50
2023-04-23T16:49:07.457Z,100981.31
2023-04-23T16:51:56.105Z,100963.28
2023-04-23T16:55:43.556Z,100980.88
2023-04-23T16:58:45.880Z,100950.25
2023-04-23T17:01:56.585Z,100956.94
2023-04-23T17:04:59.286Z,100974.97
2023-04-23T17:08:01.930Z,100976.84
2023-04-23T17:11:07.477Z,100985.25
2023-04-23T17:14:09.692Z,100985.25
2023-04-23T17:17:11.755Z,100983.34
2023-04-23T17:20:15.909Z,100988.75
2023-04-23T17:23:21.506Z,100987.28
2023-04-23T17:26:24.586Z,101001.88
2023-04-23T17:29:26.852Z,101008.59
2023-04-23T17:32:31.510Z,101003.94
2023-04-23T17:35:33.638Z,101002.72
2023-04-23T17:38:35.907Z,101001.84
2023-04-23T17:41:38.728Z,101007.47
2023-04-23T17:44:42.626Z,101002.47
2023-04-23T17:47:55.215Z,100987.38
2023-04-23T17:50:57.765Z,101008.53
2023-04-23T17:54:02.216Z,101015.44
2023-04-23T17:57:04.997Z,101010.97
2023-04-23T18:00:10.009Z,101019.56
2023-04-23T18:03:18.818Z,101018.50
2023-04-23T18:06:22.287Z,101020.53
2023-04-23T18:09:24.414Z,101023.06
2023-04-23T18:12:30.885Z,101011.91
2023-04-23T18:15:33.045Z,101025.56
2023-04-23T18:18:35.260Z,101031.22
2023-04-23T18:21:38.962Z,101029.72
2023-04-23T18:24:41.445Z,101023.84
2023-04-23T18:27:44.987Z,101027.59
2023-04-23T18:30:47.341Z,101030.31
2023-04-23T18:34:00.184Z,101036.31
2023-04-23T18:37:09.854Z,101033.75
2023-04-23T18:40:12.695Z,101045.28
2023-04-23T18:43:25.153Z,101043.72
2023-04-23T18:46:28.924Z,101040.63
2023-04-23T18:49:46.740Z,101036.63
2023-04-23T18:53:00.385Z,101038.34
2023-04-23T18:56:10.697Z,101042.94
2023-04-23T18:59:20.469Z,101039.38
2023-04-23T19:02:34.366Z,101033.13
2023-04-23T19:05:38.640Z,101033.91
2023-04-23T19:08:42.865Z,101042.50
2023-04-23T19:11:45.599Z,101023.81
2023-04-23T19:14:48.399Z,101042.50
2023-04-23T19:17:50.657Z,101035.78
2023-04-23T19:20:52.959Z,101050.59
2023-04-23T19:23:56.874Z,101046.19
2023-04-23T19:27:01.059Z,101044.94
2023-04-23T19:30:10.263Z,101051.88
2023-04-23T19:33:15.365Z,101035.50
2023-04-23T19:36:19.704Z,101050.75
2023-04-23T19:39:23.728Z,101045.88
2023-04-23T19:42:25.961Z,101041.63
2023-04-23T19:45:30.180Z,101049.78
2023-04-23T19:48:32.897Z,101052.81
2023-04-23T19:51:39.037Z,101040.44
2023-04-23T19:54:49.108Z,101045.88
2023-04-23T19:57:51.281Z,101042.72
2023-04-23T20:00:54.499Z,101040.59
2023-04-23T20:03:56.870Z,101040.97
2023-04-23T20:06:59.025Z,101039.09
2023-04-23T20:10:01.419Z,101033.28
2023-04-23T20:13:03.724Z,101036.38
2023-04-23T20:16:08.390Z,101030.94
2023-04-23T20:19:13.799Z,101040.41
2023-04-23T20:22:18.172Z,101038.72
2023-04-23T20:25:25.750Z,101030.69
2023-04-23T20:28:28.320Z,101027.09
2023-04-23T20:31:31.743Z,101019.38
2023-04-23T20:34:34.250Z,101022.50
2023-04-23T20:37:37.047Z,101023.78
2023-04-23T20:40:39.983Z,101024.97
2023-04-23T20:43:43.672Z,101033.03
2023-04-23T20:46:46.582Z,101021.72
2023-04-23T20:49:49.937Z,101028.66
2023-04-23T20:52:52.215Z,101029.03
2023-04-23T20:55:57.930Z,101026.69
2023-04-23T20:59:00.150Z,101039.09
2023-04-23T21:02:03.734Z,101035.38
2023-04-23T21:05:08.135Z,101034.31
2023-04-23T21:08:11.415Z,101027.22
2023-04-23T21:11:18.540Z,101026.38
2023-04-23T21:14:21.289Z,101018.25
2023-04-23T21:17:26.607Z,101028.91
2023-04-23T21:20:29.119Z,101025.06
2023-04-23T21:23:32.602Z,101022.34
2023-04-23T21:26:34.866Z,101024.63
2023-04-23T21:29:37.329Z,101016.94
2023-04-23T21:32:39.549Z,101017.13
2023-04-23T21:35:42.735Z,101019.84
2023-04-23T21:38:45.409Z,101016.88
2023-04-23T21:41:47.908Z,101014.56
2023-04-23T21:44:53.397Z,101006.53
2023-04-23T21:47:58.154Z,101005.88
2023-04-23T21:51:00.560Z,101005.22
2023-04-23T21:54:04.318Z,101008.41
2023-04-23T21:57:06.907Z,101000.16
2023-04-23T22:00:14.105Z,101003.19
2023-04-23T22:03:27.937Z,101002.13
2023-04-23T22:06:42.029Z,101001.28
2023-04-23T22:09:44.677Z,101000.25
2023-04-23T22:12:49.914Z,100996.91
2023-04-23T22:15:52.438Z,100994.56
2023-04-23T22:18:55.907Z,100998.78
2023-04-23T22:21:58.058Z,100995.56
2023-04-23T22:25:01.383Z,100994.47
2023-04-23T22:28:03.883Z,100985.13
2023-04-23T22:31:05.998Z,100993.28
2023-04-23T22:34:08.141Z,100996.19
2023-04-23T22:37:10.319Z,100994.53
2023-04-23T22:40:12.922Z,100990.69
2023-04-23T22:43:15.983Z,100990.06
2023-04-23T22:46:18.182Z,100982.31
2023-04-23T22:49:20.472Z,100982.31
2023-04-23T22:52:22.767Z,100973.03
2023-04-23T22:55:27.753Z,100969.69
2023-04-23T22:58:30.163Z,100960.91
2023-04-23T23:01:32.399Z,100964.00
2023-04-23T23:04:38.044Z,100973.34
2023-04-23T23:07:40.346Z,100963.00
2023-04-23T23:10:43.088Z,100957.84
2023-04-23T23:13:48.287Z,100964.94
2023-04-23T23:16:50.404Z,100966.38
2023-04-23T23:19:53.462Z,100970.66
2023-04-23T23:22:55.711Z,100960.47
2023-04-23T23:25:59.944Z,100955.81
2023-04-23T23:29:02.404Z,100952.25
2023-04-23T23:32:04.723Z,100956.00
2023-04-23T23:35:08.345Z,100953.22
2023-04-23T23:38:11.207Z,100953.47
2023-04-23T23:41:13.414Z,100953.84
2023-04-23T23:44:16.793Z,100953.31
2023-04-23T23:47:19.020Z,100944.63
2023-04-23T23:50:21.217Z,100943.31
2023-04-23T23:53:23.227Z,100938.75
2023-04-23T23:56:25.433Z,100937.69
2023-04-23T23:59:27.695Z,100938.16
